Terminal Aerodrome Forecast
Issued by NWS Charleston, SC

Home | Current Version | Previous Version | Text Only | Print | Product List | Glossary On
Versions: 1 2 3 4 5 6 7 8 9 10 11 12 13 14 15 16 17 18 19 20 21 22 23 24
000
FTUS42 KCHS 052000 AAA
TAFSAV
TAF AMD
KSAV 052000Z 0520/0618 20010KT P6SM VCTS SCT030 BKN040CB
      TEMPO 0520/0522 VRB15G25KT 2SM TSRA SCT015 BKN030CB
     FM052300 20007KT P6SM FEW035 BKN120
     FM061200 25005KT P6SM SCT060=

USA.gov is the U.S. government's official web portal to all federal, state and local government web resources and services.